sensor_id;sensor_type;location;lat;lon;timestamp;temperature;humidity
10417;DHT22;62605;49.432;8.680;2022-10-16T00:01:29;16.50;99.90
10417;DHT22;62605;49.432;8.680;2022-10-16T00:03:57;16.60;99.90
10417;DHT22;62605;49.432;8.680;2022-10-16T00:06:26;16.60;99.90
10417;DHT22;62605;49.432;8.680;2022-10-16T00:08:53;16.60;99.90
10417;DHT22;62605;49.432;8.680;2022-10-16T00:11:22;16.60;99.90
10417;DHT22;62605;49.432;8.680;2022-10-16T00:13:52;16.70;99.90
10417;DHT22;62605;49.432;8.680;2022-10-16T00:16:21;16.70;99.90
10417;DHT22;62605;49.432;8.680;2022-10-16T00:18:50;16.60;99.90
10417;DHT22;62605;49.432;8.680;2022-10-16T00:21:18;16.50;99.90
10417;DHT22;62605;49.432;8.680;2022-10-16T00:23:46;16.60;99.90
10417;DHT22;62605;49.432;8.680;2022-10-16T00:26:16;16.60;99.90
10417;DHT22;62605;49.432;8.680;2022-10-16T00:28:45;16.50;99.90
10417;DHT22;62605;49.432;8.680;2022-10-16T00:31:12;16.60;99.90
10417;DHT22;62605;49.432;8.680;2022-10-16T00:33:40;16.50;99.90
10417;DHT22;62605;49.432;8.680;2022-10-16T00:36:12;16.50;99.90
10417;DHT22;62605;49.432;8.680;2022-10-16T00:38:40;16.50;99.90
10417;DHT22;62605;49.432;8.680;2022-10-16T00:41:10;16.50;99.90
10417;DHT22;62605;49.432;8.680;2022-10-16T00:43:41;16.60;99.90
10417;DHT22;62605;49.432;8.680;2022-10-16T00:46:16;16.60;99.90
10417;DHT22;62605;49.432;8.680;2022-10-16T00:48:50;16.60;99.90
10417;DHT22;62605;49.432;8.680;2022-10-16T00:51:23;16.50;99.90
10417;DHT22;62605;49.432;8.680;2022-10-16T00:53:52;16.60;99.90
10417;DHT22;62605;49.432;8.680;2022-10-16T00:56:19;16.60;99.90
10417;DHT22;62605;49.432;8.680;2022-10-16T00:58:46;16.60;99.90
10417;DHT22;62605;49.432;8.680;2022-10-16T01:01:13;16.50;99.90
10417;DHT22;62605;49.432;8.680;2022-10-16T01:03:40;16.60;99.90
10417;DHT22;62605;49.432;8.680;2022-10-16T01:06:22;16.50;99.90
10417;DHT22;62605;49.432;8.680;2022-10-16T01:09:11;16.50;99.90
10417;DHT22;62605;49.432;8.680;2022-10-16T01:11:45;16.50;99.90
10417;DHT22;62605;49.432;8.680;2022-10-16T01:14:21;16.50;99.90
10417;DHT22;62605;49.432;8.680;2022-10-16T01:16:53;16.50;99.90
10417;DHT22;62605;49.432;8.680;2022-10-16T01:19:36;16.50;99.90
10417;DHT22;62605;49.432;8.680;2022-10-16T01:22:07;16.50;99.90
10417;DHT22;62605;49.432;8.680;2022-10-16T01:24:39;16.60;99.90
10417;DHT22;62605;49.432;8.680;2022-10-16T01:27:12;16.70;99.90
10417;DHT22;62605;49.432;8.680;2022-10-16T01:29:49;16.70;99.90
10417;DHT22;62605;49.432;8.680;2022-10-16T01:32:20;16.60;99.90
10417;DHT22;62605;49.432;8.680;2022-10-16T01:34:53;16.60;99.90
10417;DHT22;62605;49.432;8.680;2022-10-16T01:37:29;16.60;99.90
10417;DHT22;62605;49.432;8.680;2022-10-16T01:40:00;16.60;99.90
10417;DHT22;62605;49.432;8.680;2022-10-16T01:42:35;16.60;99.90
10417;DHT22;62605;49.432;8.680;2022-10-16T01:45:05;16.60;99.90
10417;DHT22;62605;49.432;8.680;2022-10-16T01:47:37;16.50;99.90
10417;DHT22;62605;49.432;8.680;2022-10-16T01:50:07;16.50;99.90
10417;DHT22;62605;49.432;8.680;2022-10-16T01:52:37;16.50;99.90
10417;DHT22;62605;49.432;8.680;2022-10-16T01:55:07;16.60;99.90
10417;DHT22;62605;49.432;8.680;2022-10-16T01:57:41;16.60;99.90
10417;DHT22;62605;49.432;8.680;2022-10-16T02:00:13;16.60;99.90
10417;DHT22;62605;49.432;8.680;2022-10-16T02:02:42;16.60;99.90
10417;DHT22;62605;49.432;8.680;2022-10-16T02:05:16;16.50;99.90
10417;DHT22;62605;49.432;8.680;2022-10-16T02:07:45;16.50;99.90
10417;DHT22;62605;49.432;8.680;2022-10-16T02:10:12;16.50;99.90
10417;DHT22;62605;49.432;8.680;2022-10-16T02:12:44;16.60;99.90
10417;DHT22;62605;49.432;8.680;2022-10-16T02:15:12;16.60;99.90
10417;DHT22;62605;49.432;8.680;2022-10-16T02:17:39;16.60;99.90
10417;DHT22;62605;49.432;8.680;2022-10-16T02:20:07;16.60;99.90
10417;DHT22;62605;49.432;8.680;2022-10-16T02:22:38;16.60;99.90
10417;DHT22;62605;49.432;8.680;2022-10-16T02:25:10;16.60;99.90
10417;DHT22;62605;49.432;8.680;2022-10-16T02:27:44;16.60;99.90
10417;DHT22;62605;49.432;8.680;2022-10-16T02:30:16;16.60;99.90
10417;DHT22;62605;49.432;8.680;2022-10-16T02:32:46;16.60;99.90
10417;DHT22;62605;49.432;8.680;2022-10-16T02:35:15;16.60;99.90
10417;DHT22;62605;49.432;8.680;2022-10-16T02:37:44;16.60;99.90
10417;DHT22;62605;49.432;8.680;2022-10-16T02:40:12;16.60;99.90
10417;DHT22;62605;49.432;8.680;2022-10-16T02:42:40;16.60;99.90
10417;DHT22;62605;49.432;8.680;2022-10-16T02:45:11;16.60;99.90
10417;DHT22;62605;49.432;8.680;2022-10-16T02:47:38;16.60;99.90
10417;DHT22;62605;49.432;8.680;2022-10-16T02:50:06;16.60;99.90
10417;DHT22;62605;49.432;8.680;2022-10-16T02:52:33;16.60;99.90
10417;DHT22;62605;49.432;8.680;2022-10-16T02:55:00;16.60;99.90
10417;DHT22;62605;49.432;8.680;2022-10-16T02:57:27;16.60;99.90
10417;DHT22;62605;49.432;8.680;2022-10-16T02:59:54;16.50;99.90
10417;DHT22;62605;49.432;8.680;2022-10-16T03:02:23;16.50;99.90
10417;DHT22;62605;49.432;8.680;2022-10-16T03:04:50;16.40;99.90
10417;DHT22;62605;49.432;8.680;2022-10-16T03:07:17;16.30;99.90
10417;DHT22;62605;49.432;8.680;2022-10-16T03:09:44;16.20;99.90
10417;DHT22;62605;49.432;8.680;2022-10-16T03:12:11;16.30;99.90
10417;DHT22;62605;49.432;8.680;2022-10-16T03:14:38;16.30;99.90
10417;DHT22;62605;49.432;8.680;2022-10-16T03:17:07;16.40;99.90
10417;DHT22;62605;49.432;8.680;2022-10-16T03:19:36;16.50;99.90
10417;DHT22;62605;49.432;8.680;2022-10-16T03:22:03;16.50;99.90
10417;DHT22;62605;49.432;8.680;2022-10-16T03:24:31;16.50;99.90
10417;DHT22;62605;49.432;8.680;2022-10-16T03:26:58;16.50;99.90
10417;DHT22;62605;49.432;8.680;2022-10-16T03:29:25;16.40;99.90
10417;DHT22;62605;49.432;8.680;2022-10-16T03:31:54;16.40;99.90
10417;DHT22;62605;49.432;8.680;2022-10-16T03:34:22;16.50;99.90
10417;DHT22;62605;49.432;8.680;2022-10-16T03:36:52;16.50;99.90
10417;DHT22;62605;49.432;8.680;2022-10-16T03:39:20;16.70;99.90
10417;DHT22;62605;49.432;8.680;2022-10-16T03:41:48;16.70;99.90
10417;DHT22;62605;49.432;8.680;2022-10-16T03:44:15;16.70;99.90
10417;DHT22;62605;49.432;8.680;2022-10-16T03:46:42;16.50;99.90
10417;DHT22;62605;49.432;8.680;2022-10-16T03:49:09;16.40;99.90
10417;DHT22;62605;49.432;8.680;2022-10-16T03:51:38;16.30;99.90
10417;DHT22;62605;49.432;8.680;2022-10-16T03:54:06;16.30;99.90
10417;DHT22;62605;49.432;8.680;2022-10-16T03:56:33;16.30;99.90
10417;DHT22;62605;49.432;8.680;2022-10-16T03:59:01;16.30;99.90
10417;DHT22;62605;49.432;8.680;2022-10-16T04:01:27;16.30;99.90
10417;DHT22;62605;49.432;8.680;2022-10-16T04:03:55;16.20;99.90
10417;DHT22;62605;49.432;8.680;2022-10-16T04:06:22;16.20;99.90
10417;DHT22;62605;49.432;8.680;2022-10-16T04:08:50;16.30;99.90
10417;DHT22;62605;49.432;8.680;2022-10-16T04:11:19;16.50;99.90
10417;DHT22;62605;49.432;8.680;2022-10-16T04:13:45;16.50;99.90
10417;DHT22;62605;49.432;8.680;2022-10-16T04:16:13;16.60;99.90
10417;DHT22;62605;49.432;8.680;2022-10-16T04:18:40;16.60;99.90
10417;DHT22;62605;49.432;8.680;2022-10-16T04:21:07;16.60;99.90
10417;DHT22;62605;49.432;8.680;2022-10-16T04:23:34;16.60;99.90
10417;DHT22;62605;49.432;8.680;2022-10-16T04:26:01;16.70;99.90
10417;DHT22;62605;49.432;8.680;2022-10-16T04:28:30;16.80;99.90
10417;DHT22;62605;49.432;8.680;2022-10-16T04:30:58;16.80;99.90
10417;DHT22;62605;49.432;8.680;2022-10-16T04:33:25;17.00;99.90
10417;DHT22;62605;49.432;8.680;2022-10-16T04:35:56;17.00;99.90
10417;DHT22;62605;49.432;8.680;2022-10-16T04:38:24;17.00;99.90
10417;DHT22;62605;49.432;8.680;2022-10-16T04:40:51;17.00;99.90
10417;DHT22;62605;49.432;8.680;2022-10-16T04:43:19;17.00;99.90
10417;DHT22;62605;49.432;8.680;2022-10-16T04:45:47;17.10;99.90
10417;DHT22;62605;49.432;8.680;2022-10-16T04:48:16;17.00;99.90
10417;DHT22;62605;49.432;8.680;2022-10-16T04:50:43;17.00;99.90
10417;DHT22;62605;49.432;8.680;2022-10-16T04:53:10;16.90;99.90
10417;DHT22;62605;49.432;8.680;2022-10-16T04:55:37;16.70;99.90
10417;DHT22;62605;49.432;8.680;2022-10-16T04:58:04;16.70;99.90
10417;DHT22;62605;49.432;8.680;2022-10-16T05:00:32;16.90;99.90
10417;DHT22;62605;49.432;8.680;2022-10-16T05:03:01;17.00;99.90
10417;DHT22;62605;49.432;8.680;2022-10-16T05:05:31;17.00;99.90
10417;DHT22;62605;49.432;8.680;2022-10-16T05:07:58;17.00;99.90
10417;DHT22;62605;49.432;8.680;2022-10-16T05:10:25;17.00;99.90
10417;DHT22;62605;49.432;8.680;2022-10-16T05:12:52;16.90;99.90
10417;DHT22;62605;49.432;8.680;2022-10-16T05:15:20;16.80;99.90
10417;DHT22;62605;49.432;8.680;2022-10-16T05:17:47;16.70;99.90
10417;DHT22;62605;49.432;8.680;2022-10-16T05:20:16;16.60;99.90
10417;DHT22;62605;49.432;8.680;2022-10-16T05:22:43;16.70;99.90
10417;DHT22;62605;49.432;8.680;2022-10-16T05:25:11;16.60;99.90
10417;DHT22;62605;49.432;8.680;2022-10-16T05:27:39;16.60;99.90
10417;DHT22;62605;49.432;8.680;2022-10-16T05:30:08;16.60;99.90
10417;DHT22;62605;49.432;8.680;2022-10-16T05:32:35;16.70;99.90
10417;DHT22;62605;49.432;8.680;2022-10-16T05:35:03;16.60;99.90
10417;DHT22;62605;49.432;8.680;2022-10-16T05:37:36;16.60;99.90
10417;DHT22;62605;49.432;8.680;2022-10-16T05:40:07;16.60;99.90
10417;DHT22;62605;49.432;8.680;2022-10-16T05:42:39;16.60;99.90
10417;DHT22;62605;49.432;8.680;2022-10-16T05:45:10;16.60;99.90
10417;DHT22;62605;49.432;8.680;2022-10-16T05:47:39;16.60;99.90
10417;DHT22;62605;49.432;8.680;2022-10-16T05:50:07;16.50;99.90
10417;DHT22;62605;49.432;8.680;2022-10-16T05:52:36;16.80;99.90
10417;DHT22;62605;49.432;8.680;2022-10-16T05:55:04;16.80;99.90
10417;DHT22;62605;49.432;8.680;2022-10-16T05:57:32;16.70;99.90
10417;DHT22;62605;49.432;8.680;2022-10-16T06:00:00;16.80;99.90
10417;DHT22;62605;49.432;8.680;2022-10-16T06:02:27;16.80;99.90
10417;DHT22;62605;49.432;8.680;2022-10-16T06:04:54;17.00;99.90
10417;DHT22;62605;49.432;8.680;2022-10-16T06:07:23;17.20;99.90
10417;DHT22;62605;49.432;8.680;2022-10-16T06:09:53;17.10;99.90
10417;DHT22;62605;49.432;8.680;2022-10-16T06:12:20;17.20;99.90
10417;DHT22;62605;49.432;8.680;2022-10-16T06:14:48;17.20;99.90
10417;DHT22;62605;49.432;8.680;2022-10-16T06:17:15;17.00;99.90
10417;DHT22;62605;49.432;8.680;2022-10-16T06:19:43;17.10;99.90
10417;DHT22;62605;49.432;8.680;2022-10-16T06:22:10;17.10;99.90
10417;DHT22;62605;49.432;8.680;2022-10-16T06:24:38;17.10;99.90
10417;DHT22;62605;49.432;8.680;2022-10-16T06:27:07;17.30;99.90
10417;DHT22;62605;49.432;8.680;2022-10-16T06:29:34;17.20;99.90
10417;DHT22;62605;49.432;8.680;2022-10-16T06:32:04;17.20;99.90
10417;DHT22;62605;49.432;8.680;2022-10-16T06:34:33;17.10;99.90
10417;DHT22;62605;49.432;8.680;2022-10-16T06:37:00;17.10;99.90
10417;DHT22;62605;49.432;8.680;2022-10-16T06:39:27;17.10;99.90
10417;DHT22;62605;49.432;8.680;2022-10-16T06:41:54;17.20;99.90
10417;DHT22;62605;49.432;8.680;2022-10-16T06:44:23;17.30;99.90
10417;DHT22;62605;49.432;8.680;2022-10-16T06:46:51;17.40;99.90
10417;DHT22;62605;49.432;8.680;2022-10-16T06:49:18;17.20;99.90
10417;DHT22;62605;49.432;8.680;2022-10-16T06:51:48;17.20;99.90
10417;DHT22;62605;49.432;8.680;2022-10-16T06:54:15;17.20;99.90
10417;DHT22;62605;49.432;8.680;2022-10-16T06:56:43;17.10;99.90
10417;DHT22;62605;49.432;8.680;2022-10-16T06:59:10;17.10;99.90
10417;DHT22;62605;49.432;8.680;2022-10-16T07:01:39;17.20;99.90
10417;DHT22;62605;49.432;8.680;2022-10-16T07:04:06;17.10;99.90
10417;DHT22;62605;49.432;8.680;2022-10-16T07:06:34;17.10;99.90
10417;DHT22;62605;49.432;8.680;2022-10-16T07:09:03;17.00;99.90
10417;DHT22;62605;49.432;8.680;2022-10-16T07:11:31;17.00;99.90
10417;DHT22;62605;49.432;8.680;2022-10-16T07:13:59;17.00;99.90
10417;DHT22;62605;49.432;8.680;2022-10-16T07:16:28;17.00;99.90
10417;DHT22;62605;49.432;8.680;2022-10-16T07:18:58;17.10;99.90
10417;DHT22;62605;49.432;8.680;2022-10-16T07:21:27;17.20;99.90
10417;DHT22;62605;49.432;8.680;2022-10-16T07:23:56;17.30;99.90
10417;DHT22;62605;49.432;8.680;2022-10-16T07:26:25;17.40;99.90
10417;DHT22;62605;49.432;8.680;2022-10-16T07:28:53;17.50;99.90
10417;DHT22;62605;49.432;8.680;2022-10-16T07:31:21;17.50;99.90
10417;DHT22;62605;49.432;8.680;2022-10-16T07:33:50;17.60;99.90
10417;DHT22;62605;49.432;8.680;2022-10-16T07:36:20;17.60;99.90
10417;DHT22;62605;49.432;8.680;2022-10-16T07:38:48;17.80;99.90
10417;DHT22;62605;49.432;8.680;2022-10-16T07:41:18;17.90;99.90
10417;DHT22;62605;49.432;8.680;2022-10-16T07:43:46;18.00;99.90
10417;DHT22;62605;49.432;8.680;2022-10-16T07:46:15;18.10;99.90
10417;DHT22;62605;49.432;8.680;2022-10-16T07:48:42;18.20;99.90
10417;DHT22;62605;49.432;8.680;2022-10-16T07:51:14;18.10;99.90
10417;DHT22;62605;49.432;8.680;2022-10-16T07:53:43;18.10;99.90
10417;DHT22;62605;49.432;8.680;2022-10-16T07:56:11;18.20;99.90
10417;DHT22;62605;49.432;8.680;2022-10-16T07:58:39;18.20;99.90
10417;DHT22;62605;49.432;8.680;2022-10-16T08:01:07;18.20;99.90
10417;DHT22;62605;49.432;8.680;2022-10-16T08:03:36;18.40;99.90
10417;DHT22;62605;49.432;8.680;2022-10-16T08:06:04;18.70;99.90
10417;DHT22;62605;49.432;8.680;2022-10-16T08:08:31;18.80;99.90
10417;DHT22;62605;49.432;8.680;2022-10-16T08:11:00;18.80;99.90
10417;DHT22;62605;49.432;8.680;2022-10-16T08:13:29;18.80;99.90
10417;DHT22;62605;49.432;8.680;2022-10-16T08:15:56;18.70;99.90
10417;DHT22;62605;49.432;8.680;2022-10-16T08:18:23;18.70;99.90
10417;DHT22;62605;49.432;8.680;2022-10-16T08:20:55;18.60;99.90
10417;DHT22;62605;49.432;8.680;2022-10-16T08:23:23;18.70;99.90
10417;DHT22;62605;49.432;8.680;2022-10-16T08:25:51;18.70;99.90
10417;DHT22;62605;49.432;8.680;2022-10-16T08:28:20;18.60;99.90
10417;DHT22;62605;49.432;8.680;2022-10-16T08:30:48;18.50;99.90
10417;DHT22;62605;49.432;8.680;2022-10-16T08:33:15;18.70;99.90
10417;DHT22;62605;49.432;8.680;2022-10-16T08:35:42;18.70;99.90
10417;DHT22;62605;49.432;8.680;2022-10-16T08:38:09;18.70;99.90
10417;DHT22;62605;49.432;8.680;2022-10-16T08:40:37;18.70;99.90
10417;DHT22;62605;49.432;8.680;2022-10-16T08:43:26;18.70;99.90
10417;DHT22;62605;49.432;8.680;2022-10-16T08:46:12;18.80;99.90
10417;DHT22;62605;49.432;8.680;2022-10-16T08:48:45;18.90;99.90
10417;DHT22;62605;49.432;8.680;2022-10-16T08:51:19;19.20;99.90
10417;DHT22;62605;49.432;8.680;2022-10-16T08:53:51;19.10;99.90
10417;DHT22;62605;49.432;8.680;2022-10-16T08:56:20;19.10;99.90
10417;DHT22;62605;49.432;8.680;2022-10-16T08:58:49;19.20;99.90
10417;DHT22;62605;49.432;8.680;2022-10-16T09:01:18;19.20;99.90
10417;DHT22;62605;49.432;8.680;2022-10-16T09:04:03;19.20;99.90
10417;DHT22;62605;49.432;8.680;2022-10-16T09:06:44;19.50;99.90
10417;DHT22;62605;49.432;8.680;2022-10-16T09:09:46;19.50;99.90
10417;DHT22;62605;49.432;8.680;2022-10-16T09:12:19;19.40;99.90
10417;DHT22;62605;49.432;8.680;2022-10-16T09:14:58;19.10;99.90
10417;DHT22;62605;49.432;8.680;2022-10-16T09:17:36;18.70;99.90
10417;DHT22;62605;49.432;8.680;2022-10-16T09:20:20;18.60;99.90
10417;DHT22;62605;49.432;8.680;2022-10-16T09:22:55;18.80;99.90
10417;DHT22;62605;49.432;8.680;2022-10-16T09:25:27;18.90;99.90
10417;DHT22;62605;49.432;8.680;2022-10-16T09:27:54;19.20;99.90
10417;DHT22;62605;49.432;8.680;2022-10-16T09:30:26;19.30;99.90
10417;DHT22;62605;49.432;8.680;2022-10-16T09:32:55;19.40;99.90
10417;DHT22;62605;49.432;8.680;2022-10-16T09:35:31;19.60;99.90
10417;DHT22;62605;49.432;8.680;2022-10-16T09:37:58;19.60;99.90
10417;DHT22;62605;49.432;8.680;2022-10-16T09:40:27;19.80;99.90
10417;DHT22;62605;49.432;8.680;2022-10-16T09:43:02;19.80;99.90
10417;DHT22;62605;49.432;8.680;2022-10-16T09:45:32;19.90;99.90
10417;DHT22;62605;49.432;8.680;2022-10-16T09:48:01;19.70;99.90
10417;DHT22;62605;49.432;8.680;2022-10-16T09:50:36;19.90;99.90
10417;DHT22;62605;49.432;8.680;2022-10-16T09:53:07;19.90;99.90
10417;DHT22;62605;49.432;8.680;2022-10-16T09:55:35;19.90;99.90
10417;DHT22;62605;49.432;8.680;2022-10-16T09:58:02;20.00;99.90
10417;DHT22;62605;49.432;8.680;2022-10-16T10:00:29;20.10;99.90
10417;DHT22;62605;49.432;8.680;2022-10-16T10:02:59;20.10;99.90
10417;DHT22;62605;49.432;8.680;2022-10-16T10:05:27;20.10;99.90
10417;DHT22;62605;49.432;8.680;2022-10-16T10:07:57;19.90;99.90
10417;DHT22;62605;49.432;8.680;2022-10-16T10:10:26;19.90;99.90
10417;DHT22;62605;49.432;8.680;2022-10-16T10:12:54;19.70;99.90
10417;DHT22;62605;49.432;8.680;2022-10-16T10:15:23;19.70;99.90
10417;DHT22;62605;49.432;8.680;2022-10-16T10:17:53;19.80;99.90
10417;DHT22;62605;49.432;8.680;2022-10-16T10:20:27;19.70;99.90
10417;DHT22;62605;49.432;8.680;2022-10-16T10:22:56;19.60;99.90
10417;DHT22;62605;49.432;8.680;2022-10-16T10:25:42;19.50;99.90
10417;DHT22;62605;49.432;8.680;2022-10-16T10:28:32;19.40;99.90
10417;DHT22;62605;49.432;8.680;2022-10-16T10:31:11;19.40;99.90
10417;DHT22;62605;49.432;8.680;2022-10-16T10:33:43;19.40;99.90
10417;DHT22;62605;49.432;8.680;2022-10-16T10:36:28;19.40;99.90
10417;DHT22;62605;49.432;8.680;2022-10-16T10:38:58;19.50;99.90
10417;DHT22;62605;49.432;8.680;2022-10-16T10:42:00;19.60;99.90
10417;DHT22;62605;49.432;8.680;2022-10-16T10:44:39;19.90;99.90
10417;DHT22;62605;49.432;8.680;2022-10-16T10:47:17;20.10;99.90
10417;DHT22;62605;49.432;8.680;2022-10-16T10:49:55;20.20;99.90
10417;DHT22;62605;49.432;8.680;2022-10-16T10:52:38;20.30;99.90
10417;DHT22;62605;49.432;8.680;2022-10-16T10:55:18;20.50;99.90
10417;DHT22;62605;49.432;8.680;2022-10-16T10:57:57;20.50;99.90
10417;DHT22;62605;49.432;8.680;2022-10-16T11:00:36;20.50;99.90
10417;DHT22;62605;49.432;8.680;2022-10-16T11:03:14;20.30;99.90
10417;DHT22;62605;49.432;8.680;2022-10-16T11:05:49;20.40;99.90
10417;DHT22;62605;49.432;8.680;2022-10-16T11:08:20;20.40;99.90
10417;DHT22;62605;49.432;8.680;2022-10-16T11:10:53;20.50;99.90
10417;DHT22;62605;49.432;8.680;2022-10-16T11:13:31;20.50;99.90
10417;DHT22;62605;49.432;8.680;2022-10-16T11:16:07;20.50;99.90
10417;DHT22;62605;49.432;8.680;2022-10-16T11:18:45;20.60;99.90
10417;DHT22;62605;49.432;8.680;2022-10-16T11:21:16;20.70;99.90
10417;DHT22;62605;49.432;8.680;2022-10-16T11:23:50;20.70;99.90
10417;DHT22;62605;49.432;8.680;2022-10-16T11:26:22;20.80;99.90
10417;DHT22;62605;49.432;8.680;2022-10-16T11:28:53;20.90;99.90
10417;DHT22;62605;49.432;8.680;2022-10-16T11:31:27;20.80;99.90
10417;DHT22;62605;49.432;8.680;2022-10-16T11:34:02;20.70;99.90
10417;DHT22;62605;49.432;8.680;2022-10-16T11:36:35;20.90;99.90
10417;DHT22;62605;49.432;8.680;2022-10-16T11:39:11;20.90;99.90
10417;DHT22;62605;49.432;8.680;2022-10-16T11:41:47;21.00;99.90
10417;DHT22;62605;49.432;8.680;2022-10-16T11:44:23;21.20;99.90
10417;DHT22;62605;49.432;8.680;2022-10-16T11:47:03;21.20;99.90
10417;DHT22;62605;49.432;8.680;2022-10-16T11:49:34;21.30;99.90
10417;DHT22;62605;49.432;8.680;2022-10-16T11:52:07;21.40;99.90
10417;DHT22;62605;49.432;8.680;2022-10-16T11:54:47;21.20;99.90
10417;DHT22;62605;49.432;8.680;2022-10-16T11:57:19;21.30;99.90
10417;DHT22;62605;49.432;8.680;2022-10-16T11:59:52;21.30;99.90
10417;DHT22;62605;49.432;8.680;2022-10-16T12:02:33;21.30;99.90
10417;DHT22;62605;49.432;8.680;2022-10-16T12:05:14;21.30;99.90
10417;DHT22;62605;49.432;8.680;2022-10-16T12:07:49;21.30;99.90
10417;DHT22;62605;49.432;8.680;2022-10-16T12:10:26;21.60;99.90
10417;DHT22;62605;49.432;8.680;2022-10-16T12:12:53;21.70;99.90
10417;DHT22;62605;49.432;8.680;2022-10-16T12:15:24;21.90;99.90
10417;DHT22;62605;49.432;8.680;2022-10-16T12:17:52;21.90;99.90
10417;DHT22;62605;49.432;8.680;2022-10-16T12:20:23;21.80;99.90
10417;DHT22;62605;49.432;8.680;2022-10-16T12:22:53;21.60;99.90
10417;DHT22;62605;49.432;8.680;2022-10-16T12:25:25;21.40;99.90
10417;DHT22;62605;49.432;8.680;2022-10-16T12:27:55;21.40;99.90
10417;DHT22;62605;49.432;8.680;2022-10-16T12:30:24;21.20;99.90
10417;DHT22;62605;49.432;8.680;2022-10-16T12:32:56;21.20;99.90
10417;DHT22;62605;49.432;8.680;2022-10-16T12:35:26;21.20;99.90
10417;DHT22;62605;49.432;8.680;2022-10-16T12:38:07;21.30;99.90
10417;DHT22;62605;49.432;8.680;2022-10-16T12:40:38;21.50;99.90
10417;DHT22;62605;49.432;8.680;2022-10-16T12:43:36;21.60;99.90
10417;DHT22;62605;49.432;8.680;2022-10-16T12:46:20;21.40;99.90
10417;DHT22;62605;49.432;8.680;2022-10-16T12:48:49;21.40;99.90
10417;DHT22;62605;49.432;8.680;2022-10-16T12:51:24;21.60;99.90
10417;DHT22;62605;49.432;8.680;2022-10-16T12:54:01;21.70;99.90
10417;DHT22;62605;49.432;8.680;2022-10-16T12:56:41;21.70;99.90
10417;DHT22;62605;49.432;8.680;2022-10-16T12:59:24;21.50;99.90
10417;DHT22;62605;49.432;8.680;2022-10-16T13:02:08;21.40;99.90
10417;DHT22;62605;49.432;8.680;2022-10-16T13:05:04;21.50;99.90
10417;DHT22;62605;49.432;8.680;2022-10-16T13:07:46;21.60;99.90
10417;DHT22;62605;49.432;8.680;2022-10-16T13:10:23;22.10;99.90
10417;DHT22;62605;49.432;8.680;2022-10-16T13:13:10;22.30;99.90
10417;DHT22;62605;49.432;8.680;2022-10-16T13:15:58;22.30;99.90
10417;DHT22;62605;49.432;8.680;2022-10-16T13:18:34;22.30;99.90
10417;DHT22;62605;49.432;8.680;2022-10-16T13:21:16;21.90;99.90
10417;DHT22;62605;49.432;8.680;2022-10-16T13:23:54;21.70;99.90
10417;DHT22;62605;49.432;8.680;2022-10-16T13:26:34;21.40;99.90
10417;DHT22;62605;49.432;8.680;2022-10-16T13:29:09;21.30;99.90
10417;DHT22;62605;49.432;8.680;2022-10-16T13:31:39;21.10;99.90
10417;DHT22;62605;49.432;8.680;2022-10-16T13:34:13;21.00;99.90
10417;DHT22;62605;49.432;8.680;2022-10-16T13:36:46;20.90;99.90
10417;DHT22;62605;49.432;8.680;2022-10-16T13:39:22;20.70;99.90
10417;DHT22;62605;49.432;8.680;2022-10-16T13:42:05;20.70;99.90
10417;DHT22;62605;49.432;8.680;2022-10-16T13:44:39;20.60;99.90
10417;DHT22;62605;49.432;8.680;2022-10-16T13:47:16;20.70;99.90
10417;DHT22;62605;49.432;8.680;2022-10-16T13:49:44;20.60;99.90
10417;DHT22;62605;49.432;8.680;2022-10-16T13:52:17;20.60;99.90
10417;DHT22;62605;49.432;8.680;2022-10-16T13:54:45;20.60;99.90
10417;DHT22;62605;49.432;8.680;2022-10-16T13:57:14;20.60;99.90
10417;DHT22;62605;49.432;8.680;2022-10-16T13:59:43;20.60;99.90
10417;DHT22;62605;49.432;8.680;2022-10-16T14:02:19;20.60;99.90
10417;DHT22;62605;49.432;8.680;2022-10-16T14:04:47;20.70;99.90
10417;DHT22;62605;49.432;8.680;2022-10-16T14:07:21;20.60;99.90
10417;DHT22;62605;49.432;8.680;2022-10-16T14:09:51;20.60;99.90
10417;DHT22;62605;49.432;8.680;2022-10-16T14:12:22;20.60;99.90
10417;DHT22;62605;49.432;8.680;2022-10-16T14:14:53;20.60;99.90
10417;DHT22;62605;49.432;8.680;2022-10-16T14:17:24;20.40;99.90
10417;DHT22;62605;49.432;8.680;2022-10-16T14:19:54;20.30;99.90
10417;DHT22;62605;49.432;8.680;2022-10-16T14:22:29;20.30;99.90
10417;DHT22;62605;49.432;8.680;2022-10-16T14:24:57;20.30;99.90
10417;DHT22;62605;49.432;8.680;2022-10-16T14:27:29;20.20;99.90
10417;DHT22;62605;49.432;8.680;2022-10-16T14:30:14;20.10;99.90
10417;DHT22;62605;49.432;8.680;2022-10-16T14:32:53;19.90;99.90
10417;DHT22;62605;49.432;8.680;2022-10-16T14:35:28;19.90;99.90
10417;DHT22;62605;49.432;8.680;2022-10-16T14:37:56;19.80;99.90
10417;DHT22;62605;49.432;8.680;2022-10-16T14:40:26;19.70;99.90
10417;DHT22;62605;49.432;8.680;2022-10-16T14:42:54;19.50;99.90
10417;DHT22;62605;49.432;8.680;2022-10-16T14:45:26;19.50;99.90
10417;DHT22;62605;49.432;8.680;2022-10-16T14:47:55;19.50;99.90
10417;DHT22;62605;49.432;8.680;2022-10-16T14:50:23;19.40;99.90
10417;DHT22;62605;49.432;8.680;2022-10-16T14:52:50;19.30;99.90
10417;DHT22;62605;49.432;8.680;2022-10-16T14:55:18;19.30;99.90
10417;DHT22;62605;49.432;8.680;2022-10-16T14:57:46;19.40;99.90
10417;DHT22;62605;49.432;8.680;2022-10-16T15:00:17;19.50;99.90
10417;DHT22;62605;49.432;8.680;2022-10-16T15:02:47;19.60;99.90
10417;DHT22;62605;49.432;8.680;2022-10-16T15:05:19;19.60;99.90
10417;DHT22;62605;49.432;8.680;2022-10-16T15:07:48;19.60;99.90
10417;DHT22;62605;49.432;8.680;2022-10-16T15:10:16;19.70;99.90
10417;DHT22;62605;49.432;8.680;2022-10-16T15:12:44;19.80;99.90
10417;DHT22;62605;49.432;8.680;2022-10-16T15:15:25;19.90;99.90
10417;DHT22;62605;49.432;8.680;2022-10-16T15:17:56;20.00;99.90
10417;DHT22;62605;49.432;8.680;2022-10-16T15:20:26;20.10;99.90
10417;DHT22;62605;49.432;8.680;2022-10-16T15:22:56;20.30;99.90
10417;DHT22;62605;49.432;8.680;2022-10-16T15:25:31;20.30;99.90
10417;DHT22;62605;49.432;8.680;2022-10-16T15:27:59;20.30;99.90
10417;DHT22;62605;49.432;8.680;2022-10-16T15:30:28;20.40;99.90
10417;DHT22;62605;49.432;8.680;2022-10-16T15:32:59;20.40;99.90
10417;DHT22;62605;49.432;8.680;2022-10-16T15:35:26;20.30;99.90
10417;DHT22;62605;49.432;8.680;2022-10-16T15:37:54;20.20;99.90
10417;DHT22;62605;49.432;8.680;2022-10-16T15:40:21;20.20;99.90
10417;DHT22;62605;49.432;8.680;2022-10-16T15:42:50;20.10;99.90
10417;DHT22;62605;49.432;8.680;2022-10-16T15:45:18;20.00;99.90
10417;DHT22;62605;49.432;8.680;2022-10-16T15:47:47;19.90;99.90
10417;DHT22;62605;49.432;8.680;2022-10-16T15:50:16;19.80;99.90
10417;DHT22;62605;49.432;8.680;2022-10-16T15:52:44;19.70;99.90
10417;DHT22;62605;49.432;8.680;2022-10-16T15:55:13;19.50;99.90